sensor_id;sensor_type;location;lat;lon;timestamp;P1;durP1;ratioP1;P2;durP2;ratioP2
7193;SDS011;3638;48.820;9.244;2024-03-02T00:00:49;19.70;;;15.57;;
7193;SDS011;3638;48.820;9.244;2024-03-02T00:03:17;22.20;;;16.47;;
7193;SDS011;3638;48.820;9.244;2024-03-02T00:05:48;17.77;;;15.13;;
7193;SDS011;3638;48.820;9.244;2024-03-02T00:08:19;16.80;;;14.97;;
7193;SDS011;3638;48.820;9.244;2024-03-02T00:10:50;19.20;;;15.07;;
7193;SDS011;3638;48.820;9.244;2024-03-02T00:13:19;17.70;;;14.70;;
7193;SDS011;3638;48.820;9.244;2024-03-02T00:15:48;17.43;;;15.00;;
7193;SDS011;3638;48.820;9.244;2024-03-02T00:18:19;19.33;;;15.73;;
7193;SDS011;3638;48.820;9.244;2024-03-02T00:20:47;17.50;;;14.53;;
7193;SDS011;3638;48.820;9.244;2024-03-02T00:23:14;17.87;;;14.73;;
7193;SDS011;3638;48.820;9.244;2024-03-02T00:25:44;18.83;;;15.50;;
7193;SDS011;3638;48.820;9.244;2024-03-02T00:28:14;18.30;;;14.80;;
7193;SDS011;3638;48.820;9.244;2024-03-02T00:30:50;17.67;;;15.00;;
7193;SDS011;3638;48.820;9.244;2024-03-02T00:33:21;18.47;;;14.83;;
7193;SDS011;3638;48.820;9.244;2024-03-02T00:35:49;21.23;;;15.73;;
7193;SDS011;3638;48.820;9.244;2024-03-02T00:38:17;18.27;;;15.23;;
7193;SDS011;3638;48.820;9.244;2024-03-02T00:40:45;16.50;;;14.30;;
7193;SDS011;3638;48.820;9.244;2024-03-02T00:43:19;18.10;;;14.87;;
7193;SDS011;3638;48.820;9.244;2024-03-02T00:46:03;16.57;;;14.37;;
7193;SDS011;3638;48.820;9.244;2024-03-02T00:48:30;20.30;;;16.23;;
7193;SDS011;3638;48.820;9.244;2024-03-02T00:51:00;17.40;;;15.53;;
7193;SDS011;3638;48.820;9.244;2024-03-02T00:53:29;17.87;;;15.50;;
7193;SDS011;3638;48.820;9.244;2024-03-02T00:55:58;17.73;;;14.90;;
7193;SDS011;3638;48.820;9.244;2024-03-02T00:58:27;16.70;;;14.90;;
7193;SDS011;3638;48.820;9.244;2024-03-02T01:00:54;17.80;;;14.30;;
7193;SDS011;3638;48.820;9.244;2024-03-02T01:03:21;18.80;;;14.40;;
7193;SDS011;3638;48.820;9.244;2024-03-02T01:05:49;17.83;;;14.73;;
7193;SDS011;3638;48.820;9.244;2024-03-02T01:08:16;15.83;;;13.67;;
7193;SDS011;3638;48.820;9.244;2024-03-02T01:10:43;17.43;;;14.77;;
7193;SDS011;3638;48.820;9.244;2024-03-02T01:13:12;17.13;;;14.27;;
7193;SDS011;3638;48.820;9.244;2024-03-02T01:15:39;17.30;;;15.07;;
7193;SDS011;3638;48.820;9.244;2024-03-02T01:18:06;18.40;;;15.23;;
7193;SDS011;3638;48.820;9.244;2024-03-02T01:20:33;16.97;;;14.20;;
7193;SDS011;3638;48.820;9.244;2024-03-02T01:23:01;16.83;;;14.10;;
7193;SDS011;3638;48.820;9.244;2024-03-02T01:25:28;17.23;;;14.27;;
7193;SDS011;3638;48.820;9.244;2024-03-02T01:27:55;19.43;;;14.27;;
7193;SDS011;3638;48.820;9.244;2024-03-02T01:30:24;16.80;;;14.03;;
7193;SDS011;3638;48.820;9.244;2024-03-02T01:32:51;15.30;;;13.17;;
7193;SDS011;3638;48.820;9.244;2024-03-02T01:35:18;18.33;;;14.50;;
7193;SDS011;3638;48.820;9.244;2024-03-02T01:37:45;16.17;;;13.40;;
7193;SDS011;3638;48.820;9.244;2024-03-02T01:40:13;16.47;;;14.30;;
7193;SDS011;3638;48.820;9.244;2024-03-02T01:42:40;15.80;;;13.43;;
7193;SDS011;3638;48.820;9.244;2024-03-02T01:45:07;15.67;;;13.97;;
7193;SDS011;3638;48.820;9.244;2024-03-02T01:47:36;17.20;;;13.83;;
7193;SDS011;3638;48.820;9.244;2024-03-02T01:50:04;16.97;;;13.47;;
7193;SDS011;3638;48.820;9.244;2024-03-02T01:52:32;16.53;;;13.87;;
7193;SDS011;3638;48.820;9.244;2024-03-02T01:54:59;18.70;;;14.67;;
7193;SDS011;3638;48.820;9.244;2024-03-02T01:57:26;18.60;;;15.27;;
7193;SDS011;3638;48.820;9.244;2024-03-02T01:59:53;16.23;;;13.93;;
7193;SDS011;3638;48.820;9.244;2024-03-02T02:02:21;18.30;;;14.13;;
7193;SDS011;3638;48.820;9.244;2024-03-02T02:04:49;18.57;;;14.10;;
7193;SDS011;3638;48.820;9.244;2024-03-02T02:07:16;16.70;;;14.10;;
7193;SDS011;3638;48.820;9.244;2024-03-02T02:09:44;15.20;;;13.60;;
7193;SDS011;3638;48.820;9.244;2024-03-02T02:12:11;15.90;;;13.73;;
7193;SDS011;3638;48.820;9.244;2024-03-02T02:14:38;17.73;;;13.73;;
7193;SDS011;3638;48.820;9.244;2024-03-02T02:17:08;17.80;;;14.60;;
7193;SDS011;3638;48.820;9.244;2024-03-02T02:19:35;21.20;;;14.97;;
7193;SDS011;3638;48.820;9.244;2024-03-02T02:22:04;16.47;;;13.93;;
7193;SDS011;3638;48.820;9.244;2024-03-02T02:24:31;16.13;;;14.43;;
7193;SDS011;3638;48.820;9.244;2024-03-02T02:26:58;17.80;;;14.53;;
7193;SDS011;3638;48.820;9.244;2024-03-02T02:29:25;17.00;;;14.43;;
7193;SDS011;3638;48.820;9.244;2024-03-02T02:31:53;19.03;;;15.87;;
7193;SDS011;3638;48.820;9.244;2024-03-02T02:34:20;17.20;;;14.43;;
7193;SDS011;3638;48.820;9.244;2024-03-02T02:36:47;19.03;;;14.70;;
7193;SDS011;3638;48.820;9.244;2024-03-02T02:39:16;15.87;;;13.63;;
7193;SDS011;3638;48.820;9.244;2024-03-02T02:41:44;18.07;;;14.97;;
7193;SDS011;3638;48.820;9.244;2024-03-02T02:44:11;18.37;;;14.63;;
7193;SDS011;3638;48.820;9.244;2024-03-02T02:46:39;18.03;;;15.13;;
7193;SDS011;3638;48.820;9.244;2024-03-02T02:49:06;19.63;;;15.77;;
7193;SDS011;3638;48.820;9.244;2024-03-02T02:51:33;19.53;;;15.13;;
7193;SDS011;3638;48.820;9.244;2024-03-02T02:54:00;19.00;;;15.57;;
7193;SDS011;3638;48.820;9.244;2024-03-02T02:56:29;17.63;;;15.47;;
7193;SDS011;3638;48.820;9.244;2024-03-02T02:58:56;19.20;;;15.23;;
7193;SDS011;3638;48.820;9.244;2024-03-02T03:01:23;17.80;;;15.37;;
7193;SDS011;3638;48.820;9.244;2024-03-02T03:03:51;21.27;;;15.83;;
7193;SDS011;3638;48.820;9.244;2024-03-02T03:06:18;20.10;;;16.00;;
7193;SDS011;3638;48.820;9.244;2024-03-02T03:08:45;20.17;;;15.33;;
7193;SDS011;3638;48.820;9.244;2024-03-02T03:11:12;19.80;;;15.67;;
7193;SDS011;3638;48.820;9.244;2024-03-02T03:13:41;18.70;;;15.53;;
7193;SDS011;3638;48.820;9.244;2024-03-02T03:16:09;19.57;;;16.23;;
7193;SDS011;3638;48.820;9.244;2024-03-02T03:18:36;22.93;;;16.67;;
7193;SDS011;3638;48.820;9.244;2024-03-02T03:21:03;20.20;;;15.63;;
7193;SDS011;3638;48.820;9.244;2024-03-02T03:23:30;21.33;;;17.03;;
7193;SDS011;3638;48.820;9.244;2024-03-02T03:25:58;19.30;;;15.83;;
7193;SDS011;3638;48.820;9.244;2024-03-02T03:28:25;18.93;;;15.50;;
7193;SDS011;3638;48.820;9.244;2024-03-02T03:30:54;18.40;;;15.53;;
7193;SDS011;3638;48.820;9.244;2024-03-02T03:33:21;20.77;;;15.77;;
7193;SDS011;3638;48.820;9.244;2024-03-02T03:35:49;19.90;;;15.97;;
7193;SDS011;3638;48.820;9.244;2024-03-02T03:38:16;19.80;;;16.20;;
7193;SDS011;3638;48.820;9.244;2024-03-02T03:40:44;20.33;;;16.53;;
7193;SDS011;3638;48.820;9.244;2024-03-02T03:43:12;20.43;;;16.00;;
7193;SDS011;3638;48.820;9.244;2024-03-02T03:45:39;19.83;;;15.40;;
7193;SDS011;3638;48.820;9.244;2024-03-02T03:48:08;18.33;;;15.20;;
7193;SDS011;3638;48.820;9.244;2024-03-02T03:50:35;19.97;;;15.73;;
7193;SDS011;3638;48.820;9.244;2024-03-02T03:53:03;21.13;;;17.00;;
7193;SDS011;3638;48.820;9.244;2024-03-02T03:55:30;21.47;;;16.37;;
7193;SDS011;3638;48.820;9.244;2024-03-02T03:57:58;20.60;;;16.83;;
7193;SDS011;3638;48.820;9.244;2024-03-02T04:00:25;23.70;;;16.43;;
7193;SDS011;3638;48.820;9.244;2024-03-02T04:02:52;20.93;;;16.50;;
7193;SDS011;3638;48.820;9.244;2024-03-02T04:05:21;19.43;;;15.33;;
7193;SDS011;3638;48.820;9.244;2024-03-02T04:07:48;20.77;;;16.10;;
7193;SDS011;3638;48.820;9.244;2024-03-02T04:10:16;20.97;;;16.37;;
7193;SDS011;3638;48.820;9.244;2024-03-02T04:12:43;20.73;;;17.03;;
7193;SDS011;3638;48.820;9.244;2024-03-02T04:15:11;22.23;;;18.10;;
7193;SDS011;3638;48.820;9.244;2024-03-02T04:17:38;22.00;;;17.20;;
7193;SDS011;3638;48.820;9.244;2024-03-02T04:20:06;23.57;;;17.30;;
7193;SDS011;3638;48.820;9.244;2024-03-02T04:22:35;21.20;;;17.40;;
7193;SDS011;3638;48.820;9.244;2024-03-02T04:25:02;24.57;;;17.47;;
7193;SDS011;3638;48.820;9.244;2024-03-02T04:27:32;20.63;;;16.50;;
7193;SDS011;3638;48.820;9.244;2024-03-02T04:29:59;20.43;;;16.30;;
7193;SDS011;3638;48.820;9.244;2024-03-02T04:32:26;19.67;;;15.77;;
7193;SDS011;3638;48.820;9.244;2024-03-02T04:34:53;20.87;;;16.47;;
7193;SDS011;3638;48.820;9.244;2024-03-02T04:37:21;21.97;;;16.87;;
7193;SDS011;3638;48.820;9.244;2024-03-02T04:39:49;22.60;;;17.23;;
7193;SDS011;3638;48.820;9.244;2024-03-02T04:42:16;22.13;;;15.77;;
7193;SDS011;3638;48.820;9.244;2024-03-02T04:44:44;20.67;;;16.50;;
7193;SDS011;3638;48.820;9.244;2024-03-02T04:47:11;20.83;;;16.63;;
7193;SDS011;3638;48.820;9.244;2024-03-02T04:49:39;23.60;;;16.97;;
7193;SDS011;3638;48.820;9.244;2024-03-02T04:52:06;21.47;;;17.57;;
7193;SDS011;3638;48.820;9.244;2024-03-02T04:54:34;22.33;;;17.93;;
7193;SDS011;3638;48.820;9.244;2024-03-02T04:57:22;23.97;;;16.33;;
7193;SDS011;3638;48.820;9.244;2024-03-02T04:59:50;21.03;;;16.27;;
7193;SDS011;3638;48.820;9.244;2024-03-02T05:02:17;19.77;;;15.70;;
7193;SDS011;3638;48.820;9.244;2024-03-02T05:04:44;20.67;;;16.43;;
7193;SDS011;3638;48.820;9.244;2024-03-02T05:07:13;21.23;;;15.57;;
7193;SDS011;3638;48.820;9.244;2024-03-02T05:09:40;21.03;;;15.70;;
7193;SDS011;3638;48.820;9.244;2024-03-02T05:12:07;21.00;;;16.23;;
7193;SDS011;3638;48.820;9.244;2024-03-02T05:15:01;20.87;;;16.53;;
7193;SDS011;3638;48.820;9.244;2024-03-02T05:17:28;20.60;;;16.80;;
7193;SDS011;3638;48.820;9.244;2024-03-02T05:19:56;22.40;;;17.03;;
7193;SDS011;3638;48.820;9.244;2024-03-02T05:22:23;21.87;;;16.10;;
7193;SDS011;3638;48.820;9.244;2024-03-02T05:24:50;19.20;;;15.73;;
7193;SDS011;3638;48.820;9.244;2024-03-02T05:27:18;21.30;;;16.33;;
7193;SDS011;3638;48.820;9.244;2024-03-02T05:29:45;21.73;;;17.07;;
7193;SDS011;3638;48.820;9.244;2024-03-02T05:32:14;20.67;;;16.93;;
7193;SDS011;3638;48.820;9.244;2024-03-02T05:34:41;22.30;;;16.80;;
7193;SDS011;3638;48.820;9.244;2024-03-02T05:37:09;21.17;;;17.30;;
7193;SDS011;3638;48.820;9.244;2024-03-02T05:39:36;23.17;;;18.00;;
7193;SDS011;3638;48.820;9.244;2024-03-02T05:42:03;23.07;;;17.30;;
7193;SDS011;3638;48.820;9.244;2024-03-02T05:44:31;21.57;;;17.90;;
7193;SDS011;3638;48.820;9.244;2024-03-02T05:46:58;22.90;;;18.20;;
7193;SDS011;3638;48.820;9.244;2024-03-02T05:49:26;26.63;;;20.43;;
7193;SDS011;3638;48.820;9.244;2024-03-02T05:51:55;23.73;;;18.73;;
7193;SDS011;3638;48.820;9.244;2024-03-02T05:54:22;24.67;;;18.67;;
7193;SDS011;3638;48.820;9.244;2024-03-02T05:56:49;24.83;;;18.93;;
7193;SDS011;3638;48.820;9.244;2024-03-02T05:59:16;25.13;;;18.63;;
7193;SDS011;3638;48.820;9.244;2024-03-02T06:01:45;22.77;;;17.80;;
7193;SDS011;3638;48.820;9.244;2024-03-02T06:04:13;26.23;;;18.50;;
7193;SDS011;3638;48.820;9.244;2024-03-02T06:06:42;27.57;;;19.17;;
7193;SDS011;3638;48.820;9.244;2024-03-02T06:09:09;25.70;;;18.57;;
7193;SDS011;3638;48.820;9.244;2024-03-02T06:11:38;25.57;;;19.37;;
7193;SDS011;3638;48.820;9.244;2024-03-02T06:14:05;26.17;;;19.57;;
7193;SDS011;3638;48.820;9.244;2024-03-02T06:16:33;26.07;;;20.20;;
7193;SDS011;3638;48.820;9.244;2024-03-02T06:19:01;24.73;;;19.30;;
7193;SDS011;3638;48.820;9.244;2024-03-02T06:21:28;24.87;;;18.93;;
7193;SDS011;3638;48.820;9.244;2024-03-02T06:23:57;26.70;;;20.47;;
7193;SDS011;3638;48.820;9.244;2024-03-02T06:26:24;31.40;;;22.40;;
7193;SDS011;3638;48.820;9.244;2024-03-02T06:28:51;28.87;;;20.63;;
7193;SDS011;3638;48.820;9.244;2024-03-02T06:31:19;32.43;;;22.13;;
7193;SDS011;3638;48.820;9.244;2024-03-02T06:33:46;29.37;;;22.53;;
7193;SDS011;3638;48.820;9.244;2024-03-02T06:36:13;26.07;;;21.33;;
7193;SDS011;3638;48.820;9.244;2024-03-02T06:38:42;29.90;;;21.80;;
7193;SDS011;3638;48.820;9.244;2024-03-02T06:41:10;26.83;;;20.47;;
7193;SDS011;3638;48.820;9.244;2024-03-02T06:43:37;27.40;;;21.23;;
7193;SDS011;3638;48.820;9.244;2024-03-02T06:46:05;27.07;;;19.20;;
7193;SDS011;3638;48.820;9.244;2024-03-02T06:48:34;24.83;;;19.50;;
7193;SDS011;3638;48.820;9.244;2024-03-02T06:51:01;25.13;;;19.10;;
7193;SDS011;3638;48.820;9.244;2024-03-02T06:53:29;25.23;;;19.27;;
7193;SDS011;3638;48.820;9.244;2024-03-02T06:55:58;23.97;;;18.27;;
7193;SDS011;3638;48.820;9.244;2024-03-02T06:58:27;23.97;;;18.53;;
7193;SDS011;3638;48.820;9.244;2024-03-02T07:00:54;21.90;;;17.53;;
7193;SDS011;3638;48.820;9.244;2024-03-02T07:03:21;22.70;;;17.07;;
7193;SDS011;3638;48.820;9.244;2024-03-02T07:05:48;23.87;;;17.33;;
7193;SDS011;3638;48.820;9.244;2024-03-02T07:08:16;22.90;;;17.67;;
7193;SDS011;3638;48.820;9.244;2024-03-02T07:10:43;20.97;;;17.17;;
7193;SDS011;3638;48.820;9.244;2024-03-02T07:13:10;20.43;;;15.87;;
7193;SDS011;3638;48.820;9.244;2024-03-02T07:15:39;20.57;;;15.13;;
7193;SDS011;3638;48.820;9.244;2024-03-02T07:18:24;19.57;;;14.73;;
7193;SDS011;3638;48.820;9.244;2024-03-02T07:20:51;17.83;;;14.83;;
7193;SDS011;3638;48.820;9.244;2024-03-02T07:23:18;18.37;;;14.20;;
7193;SDS011;3638;48.820;9.244;2024-03-02T07:25:48;17.97;;;13.67;;
7193;SDS011;3638;48.820;9.244;2024-03-02T07:28:15;15.90;;;13.17;;
7193;SDS011;3638;48.820;9.244;2024-03-02T07:30:44;14.27;;;12.57;;
7193;SDS011;3638;48.820;9.244;2024-03-02T07:33:11;15.40;;;11.80;;
7193;SDS011;3638;48.820;9.244;2024-03-02T07:35:38;13.40;;;10.53;;
7193;SDS011;3638;48.820;9.244;2024-03-02T07:38:05;12.90;;;10.60;;
7193;SDS011;3638;48.820;9.244;2024-03-02T07:40:33;11.53;;;9.87;;
7193;SDS011;3638;48.820;9.244;2024-03-02T07:43:00;12.30;;;9.57;;
7193;SDS011;3638;48.820;9.244;2024-03-02T07:45:27;11.60;;;9.77;;
7193;SDS011;3638;48.820;9.244;2024-03-02T07:47:56;11.13;;;9.50;;
7193;SDS011;3638;48.820;9.244;2024-03-02T07:50:23;11.43;;;9.53;;
7193;SDS011;3638;48.820;9.244;2024-03-02T07:52:50;10.13;;;9.03;;
7193;SDS011;3638;48.820;9.244;2024-03-02T07:55:18;11.33;;;9.27;;
7193;SDS011;3638;48.820;9.244;2024-03-02T07:57:45;13.80;;;9.50;;
7193;SDS011;3638;48.820;9.244;2024-03-02T08:00:12;10.57;;;9.30;;
7193;SDS011;3638;48.820;9.244;2024-03-02T08:02:40;9.97;;;8.90;;
7193;SDS011;3638;48.820;9.244;2024-03-02T08:05:09;10.80;;;8.40;;
7193;SDS011;3638;48.820;9.244;2024-03-02T08:07:36;10.53;;;9.10;;
7193;SDS011;3638;48.820;9.244;2024-03-02T08:10:04;9.70;;;8.60;;
7193;SDS011;3638;48.820;9.244;2024-03-02T08:12:32;10.20;;;8.67;;
7193;SDS011;3638;48.820;9.244;2024-03-02T08:14:59;9.40;;;7.80;;
7193;SDS011;3638;48.820;9.244;2024-03-02T08:17:27;9.30;;;8.30;;
7193;SDS011;3638;48.820;9.244;2024-03-02T08:19:54;9.13;;;7.93;;
7193;SDS011;3638;48.820;9.244;2024-03-02T08:22:23;8.90;;;7.47;;
7193;SDS011;3638;48.820;9.244;2024-03-02T08:24:52;8.97;;;8.00;;
7193;SDS011;3638;48.820;9.244;2024-03-02T08:27:19;9.20;;;8.30;;
7193;SDS011;3638;48.820;9.244;2024-03-02T08:29:47;9.60;;;8.43;;
7193;SDS011;3638;48.820;9.244;2024-03-02T08:32:14;10.03;;;8.67;;
7193;SDS011;3638;48.820;9.244;2024-03-02T08:34:42;10.43;;;8.90;;
7193;SDS011;3638;48.820;9.244;2024-03-02T08:37:10;9.50;;;8.33;;
7193;SDS011;3638;48.820;9.244;2024-03-02T08:39:38;9.03;;;7.80;;
7193;SDS011;3638;48.820;9.244;2024-03-02T08:42:06;9.73;;;8.07;;
7193;SDS011;3638;48.820;9.244;2024-03-02T08:44:33;8.67;;;7.37;;
7193;SDS011;3638;48.820;9.244;2024-03-02T08:47:00;8.87;;;7.50;;
7193;SDS011;3638;48.820;9.244;2024-03-02T08:49:27;8.70;;;7.77;;
7193;SDS011;3638;48.820;9.244;2024-03-02T08:51:55;10.87;;;7.27;;
7193;SDS011;3638;48.820;9.244;2024-03-02T08:54:22;8.23;;;7.43;;
7193;SDS011;3638;48.820;9.244;2024-03-02T08:56:51;9.83;;;7.80;;
7193;SDS011;3638;48.820;9.244;2024-03-02T08:59:18;7.77;;;6.97;;
7193;SDS011;3638;48.820;9.244;2024-03-02T09:01:45;15.27;;;7.23;;
7193;SDS011;3638;48.820;9.244;2024-03-02T09:04:13;9.87;;;7.50;;
7193;SDS011;3638;48.820;9.244;2024-03-02T09:06:40;7.77;;;6.83;;
7193;SDS011;3638;48.820;9.244;2024-03-02T09:09:07;8.47;;;7.00;;
7193;SDS011;3638;48.820;9.244;2024-03-02T09:11:34;11.70;;;8.23;;
7193;SDS011;3638;48.820;9.244;2024-03-02T09:14:03;8.40;;;6.87;;
7193;SDS011;3638;48.820;9.244;2024-03-02T09:16:30;7.13;;;6.43;;
7193;SDS011;3638;48.820;9.244;2024-03-02T09:18:57;7.47;;;6.77;;
7193;SDS011;3638;48.820;9.244;2024-03-02T09:21:25;8.07;;;6.87;;
7193;SDS011;3638;48.820;9.244;2024-03-02T09:23:55;8.17;;;7.00;;
7193;SDS011;3638;48.820;9.244;2024-03-02T09:26:22;8.27;;;7.43;;
7193;SDS011;3638;48.820;9.244;2024-03-02T09:28:49;7.57;;;6.77;;
7193;SDS011;3638;48.820;9.244;2024-03-02T09:31:19;8.07;;;6.17;;
7193;SDS011;3638;48.820;9.244;2024-03-02T09:33:47;9.13;;;6.33;;
7193;SDS011;3638;48.820;9.244;2024-03-02T09:36:18;6.27;;;5.67;;
7193;SDS011;3638;48.820;9.244;2024-03-02T09:38:45;6.37;;;5.70;;
7193;SDS011;3638;48.820;9.244;2024-03-02T09:41:13;6.20;;;5.60;;
7193;SDS011;3638;48.820;9.244;2024-03-02T09:43:41;5.17;;;4.67;;
7193;SDS011;3638;48.820;9.244;2024-03-02T09:46:09;5.43;;;4.90;;
7193;SDS011;3638;48.820;9.244;2024-03-02T09:48:38;4.80;;;4.40;;
7193;SDS011;3638;48.820;9.244;2024-03-02T09:51:05;5.63;;;4.67;;
7193;SDS011;3638;48.820;9.244;2024-03-02T09:53:33;4.47;;;4.07;;
7193;SDS011;3638;48.820;9.244;2024-03-02T09:56:00;4.57;;;4.17;;
7193;SDS011;3638;48.820;9.244;2024-03-02T09:58:28;4.20;;;3.83;;
7193;SDS011;3638;48.820;9.244;2024-03-02T10:00:55;6.63;;;4.40;;
7193;SDS011;3638;48.820;9.244;2024-03-02T10:03:23;4.70;;;4.10;;
7193;SDS011;3638;48.820;9.244;2024-03-02T10:05:51;4.50;;;4.10;;
7193;SDS011;3638;48.820;9.244;2024-03-02T10:08:19;5.23;;;4.20;;
7193;SDS011;3638;48.820;9.244;2024-03-02T10:10:46;5.00;;;4.50;;
7193;SDS011;3638;48.820;9.244;2024-03-02T10:13:13;4.00;;;3.60;;
7193;SDS011;3638;48.820;9.244;2024-03-02T10:15:42;4.60;;;4.20;;
7193;SDS011;3638;48.820;9.244;2024-03-02T10:18:09;4.00;;;3.60;;
7193;SDS011;3638;48.820;9.244;2024-03-02T10:20:37;4.63;;;4.00;;
7193;SDS011;3638;48.820;9.244;2024-03-02T10:23:13;3.97;;;3.60;;
7193;SDS011;3638;48.820;9.244;2024-03-02T10:25:43;4.33;;;3.90;;
7193;SDS011;3638;48.820;9.244;2024-03-02T10:28:11;7.63;;;4.23;;
7193;SDS011;3638;48.820;9.244;2024-03-02T10:30:38;4.70;;;3.90;;
7193;SDS011;3638;48.820;9.244;2024-03-02T10:33:05;4.37;;;3.73;;
7193;SDS011;3638;48.820;9.244;2024-03-02T10:35:33;4.47;;;3.33;;
7193;SDS011;3638;48.820;9.244;2024-03-02T10:38:01;4.30;;;3.90;;
7193;SDS011;3638;48.820;9.244;2024-03-02T10:40:32;4.30;;;3.90;;
7193;SDS011;3638;48.820;9.244;2024-03-02T10:42:59;3.83;;;3.53;;
7193;SDS011;3638;48.820;9.244;2024-03-02T10:45:30;4.00;;;3.60;;
7193;SDS011;3638;48.820;9.244;2024-03-02T10:47:58;5.30;;;3.73;;
7193;SDS011;3638;48.820;9.244;2024-03-02T10:50:25;3.53;;;3.23;;
7193;SDS011;3638;48.820;9.244;2024-03-02T10:52:52;5.27;;;3.67;;
7193;SDS011;3638;48.820;9.244;2024-03-02T10:55:20;4.23;;;3.77;;
7193;SDS011;3638;48.820;9.244;2024-03-02T10:57:50;5.23;;;3.70;;
7193;SDS011;3638;48.820;9.244;2024-03-02T11:00:19;3.87;;;3.50;;
7193;SDS011;3638;48.820;9.244;2024-03-02T11:02:50;4.07;;;3.67;;
7193;SDS011;3638;48.820;9.244;2024-03-02T11:05:24;4.03;;;3.60;;
7193;SDS011;3638;48.820;9.244;2024-03-02T11:07:56;5.90;;;3.37;;
7193;SDS011;3638;48.820;9.244;2024-03-02T11:12:59;4.43;;;3.60;;
7193;SDS011;3638;48.820;9.244;2024-03-02T11:15:29;3.47;;;3.17;;
7193;SDS011;3638;48.820;9.244;2024-03-02T11:17:57;4.03;;;3.63;;
7193;SDS011;3638;48.820;9.244;2024-03-02T11:20:24;3.85;;;3.20;;
7193;SDS011;3638;48.820;9.244;2024-03-02T11:22:53;3.53;;;3.23;;
7193;SDS011;3638;48.820;9.244;2024-03-02T11:25:24;5.13;;;3.30;;
7193;SDS011;3638;48.820;9.244;2024-03-02T11:28:06;3.37;;;2.80;;
7193;SDS011;3638;48.820;9.244;2024-03-02T11:30:49;3.60;;;2.75;;
7193;SDS011;3638;48.820;9.244;2024-03-02T11:33:26;3.75;;;3.03;;
7193;SDS011;3638;48.820;9.244;2024-03-02T11:35:55;3.10;;;2.80;;
7193;SDS011;3638;48.820;9.244;2024-03-02T11:38:27;2.67;;;2.43;;
7193;SDS011;3638;48.820;9.244;2024-03-02T11:40:56;2.88;;;2.67;;
7193;SDS011;3638;48.820;9.244;2024-03-02T11:43:24;2.50;;;2.30;;
7193;SDS011;3638;48.820;9.244;2024-03-02T11:45:56;2.45;;;2.00;;
7193;SDS011;3638;48.820;9.244;2024-03-02T11:48:24;4.10;;;3.15;;
7193;SDS011;3638;48.820;9.244;2024-03-02T11:50:52;2.13;;;1.92;;
7193;SDS011;3638;48.820;9.244;2024-03-02T11:53:20;3.08;;;2.60;;
7193;SDS011;3638;48.820;9.244;2024-03-02T11:55:48;1.73;;;1.63;;
7193;SDS011;3638;48.820;9.244;2024-03-02T11:58:16;1.50;;;1.40;;
7193;SDS011;3638;48.820;9.244;2024-03-02T12:00:46;1.67;;;1.58;;
7193;SDS011;3638;48.820;9.244;2024-03-02T12:03:16;1.40;;;1.30;;
7193;SDS011;3638;48.820;9.244;2024-03-02T12:05:43;1.60;;;1.50;;
7193;SDS011;3638;48.820;9.244;2024-03-02T12:08:10;1.90;;;1.80;;
7193;SDS011;3638;48.820;9.244;2024-03-02T12:10:38;1.63;;;1.52;;
7193;SDS011;3638;48.820;9.244;2024-03-02T12:16:46;2.30;;;2.10;;
7193;SDS011;3638;48.820;9.244;2024-03-02T12:19:12;1.20;;;1.13;;
7193;SDS011;3638;48.820;9.244;2024-03-02T12:21:42;1.40;;;1.30;;
7193;SDS011;3638;48.820;9.244;2024-03-02T12:24:10;1.75;;;1.20;;
7193;SDS011;3638;48.820;9.244;2024-03-02T12:26:37;1.30;;;1.30;;
7193;SDS011;3638;48.820;9.244;2024-03-02T12:29:04;2.03;;;1.30;;
7193;SDS011;3638;48.820;9.244;2024-03-02T12:31:32;1.50;;;1.40;;
7193;SDS011;3638;48.820;9.244;2024-03-02T12:34:00;1.42;;;1.33;;
7193;SDS011;3638;48.820;9.244;2024-03-02T12:36:28;1.95;;;1.30;;
7193;SDS011;3638;48.820;9.244;2024-03-02T12:38:55;1.40;;;1.30;;
7193;SDS011;3638;48.820;9.244;2024-03-02T12:41:22;1.50;;;1.40;;
7193;SDS011;3638;48.820;9.244;2024-03-02T12:43:49;2.15;;;1.70;;
7193;SDS011;3638;48.820;9.244;2024-03-02T12:46:17;1.40;;;1.30;;
7193;SDS011;3638;48.820;9.244;2024-03-02T12:48:44;1.60;;;1.50;;
7193;SDS011;3638;48.820;9.244;2024-03-02T12:51:13;1.50;;;1.40;;
7193;SDS011;3638;48.820;9.244;2024-03-02T12:53:41;1.20;;;1.20;;
7193;SDS011;3638;48.820;9.244;2024-03-02T12:56:08;1.52;;;1.42;;
7193;SDS011;3638;48.820;9.244;2024-03-02T12:58:38;2.15;;;1.30;;
7193;SDS011;3638;48.820;9.244;2024-03-02T13:01:07;1.95;;;1.40;;
7193;SDS011;3638;48.820;9.244;2024-03-02T13:03:36;1.40;;;1.10;;
7193;SDS011;3638;48.820;9.244;2024-03-02T13:06:04;2.75;;;1.60;;
7193;SDS011;3638;48.820;9.244;2024-03-02T13:08:33;1.85;;;1.63;;
7193;SDS011;3638;48.820;9.244;2024-03-02T13:11:00;1.20;;;1.20;;
7193;SDS011;3638;48.820;9.244;2024-03-02T13:13:30;1.23;;;1.23;;
7193;SDS011;3638;48.820;9.244;2024-03-02T13:15:57;2.10;;;1.30;;
7193;SDS011;3638;48.820;9.244;2024-03-02T13:18:24;1.35;;;1.27;;
7193;SDS011;3638;48.820;9.244;2024-03-02T13:20:52;1.60;;;1.48;;
7193;SDS011;3638;48.820;9.244;2024-03-02T13:23:21;1.35;;;1.30;;
7193;SDS011;3638;48.820;9.244;2024-03-02T13:25:49;1.48;;;1.38;;
7193;SDS011;3638;48.820;9.244;2024-03-02T13:28:16;1.83;;;1.67;;
7193;SDS011;3638;48.820;9.244;2024-03-02T13:30:44;1.00;;;1.00;;
7193;SDS011;3638;48.820;9.244;2024-03-02T13:33:11;1.20;;;1.20;;
7193;SDS011;3638;48.820;9.244;2024-03-02T13:35:40;1.25;;;1.20;;
7193;SDS011;3638;48.820;9.244;2024-03-02T13:38:08;1.25;;;1.20;;
7193;SDS011;3638;48.820;9.244;2024-03-02T13:40:35;1.20;;;1.20;;
7193;SDS011;3638;48.820;9.244;2024-03-02T13:43:04;1.15;;;1.10;;
7193;SDS011;3638;48.820;9.244;2024-03-02T13:45:31;2.15;;;1.30;;
7193;SDS011;3638;48.820;9.244;2024-03-02T13:48:00;1.58;;;1.30;;
7193;SDS011;3638;48.820;9.244;2024-03-02T13:50:28;1.95;;;1.30;;
7193;SDS011;3638;48.820;9.244;2024-03-02T13:52:55;1.70;;;1.60;;
7193;SDS011;3638;48.820;9.244;2024-03-02T13:55:22;1.77;;;1.30;;
7193;SDS011;3638;48.820;9.244;2024-03-02T13:57:50;1.42;;;1.33;;
7193;SDS011;3638;48.820;9.244;2024-03-02T14:00:19;1.48;;;1.33;;
7193;SDS011;3638;48.820;9.244;2024-03-02T14:02:46;1.23;;;1.23;;
7193;SDS011;3638;48.820;9.244;2024-03-02T14:05:15;1.48;;;1.38;;
7193;SDS011;3638;48.820;9.244;2024-03-02T14:07:42;1.25;;;1.17;;
7193;SDS011;3638;48.820;9.244;2024-03-02T14:10:09;1.60;;;1.50;;
7193;SDS011;3638;48.820;9.244;2024-03-02T14:12:37;1.50;;;1.40;;
7193;SDS011;3638;48.820;9.244;2024-03-02T14:15:05;1.40;;;1.30;;
7193;SDS011;3638;48.820;9.244;2024-03-02T14:17:34;1.50;;;1.40;;
7193;SDS011;3638;48.820;9.244;2024-03-02T14:20:02;1.92;;;1.70;;
7193;SDS011;3638;48.820;9.244;2024-03-02T14:22:30;1.90;;;1.52;;
7193;SDS011;3638;48.820;9.244;2024-03-02T14:24:59;1.83;;;1.73;;
7193;SDS011;3638;48.820;9.244;2024-03-02T14:27:26;1.88;;;1.77;;
7193;SDS011;3638;48.820;9.244;2024-03-02T14:29:53;3.30;;;2.00;;
7193;SDS011;3638;48.820;9.244;2024-03-02T14:32:20;2.30;;;2.00;;
7193;SDS011;3638;48.820;9.244;2024-03-02T14:34:49;2.00;;;1.80;;
7193;SDS011;3638;48.820;9.244;2024-03-02T14:37:17;1.88;;;1.77;;
7193;SDS011;3638;48.820;9.244;2024-03-02T14:39:44;1.85;;;1.50;;
7193;SDS011;3638;48.820;9.244;2024-03-02T14:42:11;1.75;;;1.65;;
7193;SDS011;3638;48.820;9.244;2024-03-02T14:44:38;1.98;;;1.88;;
7193;SDS011;3638;48.820;9.244;2024-03-02T14:47:06;1.90;;;1.80;;
7193;SDS011;3638;48.820;9.244;2024-03-02T14:49:33;2.25;;;1.73;;
7193;SDS011;3638;48.820;9.244;2024-03-02T14:52:05;1.58;;;1.48;;
7193;SDS011;3638;48.820;9.244;2024-03-02T14:54:32;1.90;;;1.70;;
7193;SDS011;3638;48.820;9.244;2024-03-02T14:57:00;2.17;;;1.75;;
7193;SDS011;3638;48.820;9.244;2024-03-02T14:59:28;1.80;;;1.45;;
7193;SDS011;3638;48.820;9.244;2024-03-02T15:01:56;2.15;;;1.40;;
7193;SDS011;3638;48.820;9.244;2024-03-02T15:04:23;1.65;;;1.55;;
7193;SDS011;3638;48.820;9.244;2024-03-02T15:06:52;1.60;;;1.50;;
7193;SDS011;3638;48.820;9.244;2024-03-02T15:09:21;1.70;;;1.60;;
7193;SDS011;3638;48.820;9.244;2024-03-02T15:11:48;1.55;;;1.45;;